Pinxton, United Kingdom
Current Conditions -  °F | °C
As of 2:20 AM on Friday 21 Nov 2014 (Local Time) from EGNX Reporting Station
Moderate Fog Moderate Fog  
Wind Chill: 41°   Ceiling: 100
Heat Index: 41°   Visibility: 0.12mi
Dew Point: 41°   Wind: 3mph
Humidity: 100%   Direction: NA
Pressure: 30.21"   Gusts: NA
Location:  53.09°N, 1.32°W
Report Text: EGNX 210220Z VRB03KT 0200 R27/0325 FG OVC001 05/05 Q1023
Loading
Personal Weather Stations






























Interactive Weather Map New forecast layout! Learn more

10-Day Weather Forecast

Advertisements
Track Severe Weather on mobile